• Join FlightAware (Why Join?)
  • Login
  • US Flag 
11:15PM EDT


 

Airport Tracker/Info


-or-


 

Live Flight TrackerFlight Track Log ✈ N373LD ✈ 18-Nov-2013 ✈ KAPA - KMLS

Flight Track Log - Related Links

Times and Time Zones

All times are in EST time to prevent confusion due to time zone crossing. See the N373LD flight status page for this flight to view local times or setup timezone preferences in your user account.

Time Position Orientation Groundspeed Altitude Reporting Facility
EST Latitude Longitude Course Direction KTS MPH feet Rate Location/Type
11:37AM 39.5500 -104.8833 North 139 160 7,600  Level Denver TRACON
11:38AM 39.5797 -104.8806 North 137 158 8,400 1,080 Climbing Denver Center
11:39AM 39.6250 -104.8753 North 160 184 9,600 1,260 Climbing Denver Center
11:40AM 39.6644 -104.8747 North 146 168 11,100 1,260 Climbing Denver Center
11:41AM 39.7083 -104.8722 North 147 169 12,300 1,140 Climbing Denver Center
11:42AM 39.7519 -104.8694 North 155 178 13,500 1,080 Climbing Denver Center
11:43AM 39.8006 -104.8658 North 161 185 14,600 960 Climbing Denver Center
11:44AM 39.8475 -104.8625 North 168 193 15,600 960 Climbing Denver Center
11:45AM 39.8964 -104.8589 North 175 201 16,600 960 Climbing Denver Center
11:46AM 39.9497 -104.8550 North 178 205 17,600 780 Climbing Denver Center
11:47AM 40.0022 -104.8519 North 188 216 18,300 900 Climbing Denver Center
11:48AM 40.0578 -104.8486 North 184 212 19,500 960 Climbing Denver Center
11:49AM 40.1114 -104.8450 North 193 222 20,300 840 Climbing Denver Center
11:50AM 40.1683 -104.8414 North 190 219 21,300 900 Climbing Denver Center
11:51AM 40.2233 -104.8369 North 199 229 22,200 900 Climbing Denver Center
11:52AM 40.2758 -104.8342 North 186 214 23,200 840 Climbing Denver Center
11:53AM 40.3367 -104.8306 North 204 235 24,000 780 Climbing Denver Center
11:54AM 40.3947 -104.8258 North 199 229 24,900 780 Climbing Denver Center
11:55AM 40.4492 -104.8228 North 197 227 25,700 480 Climbing Denver Center
11:56AM 40.5078 -104.8197 North 213 245 26,000 120 Climbing Denver Center
11:58AM 40.5742 -104.8147 North 238 274 26,000  Level Denver Center
11:59AM 40.6439 -104.8108 North 252 290 26,000  Level Denver Center
12:00PM 40.7150 -104.8058 North 252 290 26,000  Level Denver Center
12:01PM 40.7953 -104.7989 North 241 277 26,000  Level Denver Center
12:02PM 40.8642 -104.7956 North 247 284 26,000  Level Denver Center
12:03PM 40.9339 -104.7892 North 251 289 26,000  Level Denver Center
12:04PM 41.0072 -104.7839 North 252 290 26,000  Level Denver Center
12:05PM 41.0753 -104.7781 North 254 292 26,000  Level Denver Center
12:06PM 41.1539 -104.7736 North 253 291 26,000  Level Denver Center
12:07PM 41.2206 -104.7711 North 250 288 26,000  Level Denver Center
12:08PM 41.2928 -104.7886 350° North 237 273 26,000  Level Denver Center
12:09PM 41.3567 -104.7989 353° North 240 276 26,000  Level Denver Center
12:10PM 41.4314 -104.8150 351° North 242 278 26,000  Level Denver Center
12:11PM 41.4942 -104.8272 352° North 239 275 26,000  Level Denver Center
12:12PM 41.5678 -104.8428 351° North 240 276 26,000  Level Denver Center
12:13PM 41.6281 -104.8531 353° North 231 266 26,000  Level Denver Center
12:14PM 41.6981 -104.8672 351° North 227 261 26,000  Level Denver Center
12:15PM 41.7600 -104.8797 351° North 233 268 26,000  Level Denver Center
12:16PM 41.8306 -104.8961 350° North 230 265 26,000  Level Denver Center
12:17PM 41.8906 -104.9083 351° North 227 261 26,000  Level Denver Center
12:18PM 41.9650 -104.9222 352° North 240 276 26,000  Level Denver Center
12:19PM 42.0281 -104.9358 351° North 240 276 26,000  Level Denver Center
12:20PM 42.0892 -104.9481 352° North 233 268 26,000  Level Denver Center
12:21PM 42.1625 -104.9622 352° North 237 273 26,000  Level Denver Center
12:22PM 42.2233 -104.9753 351° North 234 269 26,000  Level Denver Center
12:23PM 42.2942 -104.9908 351° North 231 266 26,000  Level Denver Center
12:24PM 42.3578 -105.0025 352° North 236 272 26,000  Level Denver Center
12:25PM 42.4333 -105.0172 352° North 242 278 26,000  Level Denver Center
12:26PM 42.4981 -105.0303 352° North 244 281 26,000  Level Denver Center
12:28PM 42.5736 -105.0458 351° North 244 281 26,000  Level Denver Center
12:29PM 42.6383 -105.0603 351° North 245 282 26,000  Level Denver Center
12:30PM 42.7028 -105.0728 352° North 244 281 26,000  Level Denver Center
12:31PM 42.7772 -105.0875 352° North 241 277 26,000  Level Denver Center
12:32PM 42.8397 -105.1006 351° North 239 275 26,000  Level Denver Center
12:33PM 42.9031 -105.1131 352° North 239 275 26,000  Level Denver Center
12:34PM 42.9744 -105.1278 351° North 236 272 26,000  Level Denver Center
12:35PM 43.0458 -105.1425 351° North 233 268 26,000  Level Denver Center
12:36PM 43.1053 -105.1550 351° North 229 264 26,000  Level Denver Center
12:37PM 43.1764 -105.1703 351° North 230 265 26,000  Level Denver Center
12:38PM 43.2369 -105.1825 352° North 230 265 26,000  Level Denver Center
12:39PM 43.3075 -105.1967 352° North 229 264 26,000  Level Denver Center
12:40PM 43.3678 -105.2094 351° North 229 264 26,000  Level Denver Center
12:41PM 43.4378 -105.2222 352° North 227 261 26,000  Level Denver Center
12:42PM 43.4981 -105.2347 351° North 228 262 26,000  Level Denver Center
12:43PM 43.5597 -105.2472 352° North 231 266 26,000  Level Denver Center
12:44PM 43.6311 -105.2617 352° North 232 267 26,000  Level Denver Center
12:45PM 43.6931 -105.2756 351° North 233 268 26,000  Level Denver Center
12:46PM 43.7661 -105.2894 352° North 236 272 26,000  Level Denver Center
12:47PM 43.8264 -105.3050 349° North 233 268 26,000  Level Denver Center
12:48PM 43.8975 -105.3189 352° North 231 266 26,000  Level Denver Center
12:49PM 43.9569 -105.3311 352° North 227 261 26,000  Level Denver Center
12:50PM 44.0267 -105.3467 351° North 227 261 26,000  Level Denver Center
12:51PM 44.0858 -105.3603 351° North 226 260 26,000  Level Denver Center
12:52PM 44.1561 -105.3742 352° North 228 262 26,000  Level Denver Center
12:53PM 44.2167 -105.3875 351° North 229 264 26,000  Level Denver Center
12:54PM 44.2856 -105.4028 351° North 225 259 26,000  Level Denver Center
12:55PM 44.3447 -105.4158 351° North 225 259 26,000  Level Denver Center
12:56PM 44.4136 -105.4306 351° North 224 258 26,000  Level Denver Center
12:57PM 44.4733 -105.4433 351° North 226 260 26,000  Level Denver Center
12:59PM 44.5367 -105.4589 350° North 226 260 26,000  Level Denver Center
01:00PM 44.5994 -105.4711 352° North 227 261 26,000  Level Denver Center
01:01PM 44.6625 -105.4847 351° North 229 264 26,000  Level Denver Center
01:02PM 44.7361 -105.5022 350° North 225 259 26,000  Level Denver Center
01:03PM 44.7986 -105.5158 351° North 226 260 26,000  Level Denver Center
01:04PM 44.8611 -105.5294 351° North 227 261 26,000  Level Denver Center
01:05PM 44.9228 -105.5436 351° North 227 261 26,000  Level Denver Center
01:06PM 44.9858 -105.5556 352° North 228 262 26,000  Level Salt Lake Center
01:07PM 45.0481 -105.5706 350° North 227 261 26,000  Level Salt Lake Center
01:08PM 45.1125 -105.5839 352° North 232 267 26,000  Level Salt Lake Center
01:09PM 45.1758 -105.6000 350° North 232 267 26,000  Level Salt Lake Center
01:10PM 45.2367 -105.6217 346° North 228 262 26,000  Level Salt Lake Center
01:11PM 45.2961 -105.6450 345° North 225 259 26,000  Level Salt Lake Center
01:12PM 45.3681 -105.6725 345° North 223 257 26,000  Level Salt Lake Center
01:13PM 45.4281 -105.6942 346° North 224 258 26,000  Level Salt Lake Center
01:14PM 45.4878 -105.7175 345° North 224 258 26,000  Level Salt Lake Center
01:15PM 45.5467 -105.7411 344° North 221 254 26,000  Level Salt Lake Center
01:16PM 45.6053 -105.7617 346° North 218 251 26,000  Level Salt Lake Center
01:17PM 45.6625 -105.7833 345° North 215 247 26,000 -120 Level Salt Lake Center
01:18PM 45.7333 -105.8103 345° North 218 251 25,800 -1,020 Descending Salt Lake Center
01:19PM 45.7931 -105.8358 343° North 222 255 24,000 -1,800 Descending Salt Lake Center
01:20PM 45.8528 -105.8611 344° North 224 258 22,200 -1,800 Descending Salt Lake Center
01:21PM 45.9192 -105.8569 North 233 268 20,400 -1,740 Descending Salt Lake Center
01:22PM 45.9794 -105.8589 359° North 229 264 18,700 -1,740 Descending Salt Lake Center
01:23PM 46.0392 -105.8625 358° North 223 257 16,900 -1,800 Descending Salt Lake Center
01:25PM 46.1250 -105.8647 359° North  Level FlightAware Approximate
01:32PM 46.4167 -105.8833 347° North  Level FlightAware Approximate
01:33PM 46.4280 -105.8863 347° North  Level Estimated
01:34PM 46.4280 -105.8863 347° North  Level Estimated
01:35PM 46.4280 -105.8863 347° North  Level Estimated
01:36PM 46.4280 -105.8863 347° North  Level Estimated
01:37PM 46.4280 -105.8863 347° North  Level Estimated
01:38PM 46.4280 -105.8863 347° North  Level Estimated
01:39PM 46.4280 -105.8863 347° North  Level Estimated
01:40PM 46.4280 -105.8863 347° North  Level Estimated
01:41PM 46.4280 -105.8863 347° North  Level Estimated
01:42PM 46.4280 -105.8863 347° North  Level Estimated
01:43PM 46.4280 -105.8863 347° North  Level Estimated
01:44PM 46.4280 -105.8863 347° North  Level Estimated